createdAt,value
2022-09-15T00:01:03.089Z,98.70
2022-09-15T00:02:05.764Z,98.70
2022-09-15T00:03:09.042Z,98.70
2022-09-15T00:04:14.381Z,98.80
2022-09-15T00:05:18.485Z,98.80
2022-09-15T00:06:20.713Z,98.80
2022-09-15T00:07:27.517Z,98.90
2022-09-15T00:08:30.435Z,98.90
2022-09-15T00:09:33.959Z,98.90
2022-09-15T00:10:37.700Z,98.90
2022-09-15T00:11:40.908Z,98.90
2022-09-15T00:12:43.123Z,98.90
2022-09-15T00:13:47.153Z,98.90
2022-09-15T00:14:49.623Z,98.90
2022-09-15T00:15:53.200Z,98.90
2022-09-15T00:16:55.741Z,98.90
2022-09-15T00:17:58.883Z,99.00
2022-09-15T00:19:02.937Z,99.00
2022-09-15T00:20:06.774Z,99.00
2022-09-15T00:21:12.334Z,99.10
2022-09-15T00:22:14.721Z,99.10
2022-09-15T00:23:18.431Z,99.10
2022-09-15T00:24:20.742Z,99.20
2022-09-15T00:25:24.396Z,99.10
2022-09-15T00:26:30.861Z,99.20
2022-09-15T00:27:34.287Z,99.10
2022-09-15T00:28:37.077Z,99.20
2022-09-15T00:29:40.828Z,99.20
2022-09-15T00:30:44.972Z,99.30
2022-09-15T00:31:48.385Z,99.30
2022-09-15T00:32:50.650Z,99.40
2022-09-15T00:33:56.797Z,99.40
2022-09-15T00:34:59.107Z,99.40
2022-09-15T00:36:04.976Z,99.40
2022-09-15T00:37:07.308Z,99.50
2022-09-15T00:38:13.258Z,99.40
2022-09-15T00:39:15.570Z,99.50
2022-09-15T00:40:18.795Z,99.50
2022-09-15T00:41:23.281Z,99.60
2022-09-15T00:42:27.772Z,99.60
2022-09-15T00:43:49.271Z,99.70
2022-09-15T00:44:58.078Z,99.70
2022-09-15T00:46:00.447Z,99.70
2022-09-15T00:47:18.805Z,99.70
2022-09-15T00:48:24.441Z,99.70
2022-09-15T00:49:30.866Z,99.70
2022-09-15T00:50:35.792Z,99.70
2022-09-15T00:51:58.155Z,99.70
2022-09-15T00:53:05.130Z,99.60
2022-09-15T00:54:20.667Z,99.60
2022-09-15T00:55:26.671Z,99.60
2022-09-15T00:56:31.867Z,99.60
2022-09-15T00:57:39.836Z,99.60
2022-09-15T00:58:50.104Z,99.50
2022-09-15T00:59:54.848Z,99.50
2022-09-15T01:01:01.274Z,99.60
2022-09-15T01:02:12.760Z,99.60
2022-09-15T01:03:17.567Z,99.70
2022-09-15T01:04:20.200Z,99.70
2022-09-15T01:05:27.647Z,99.70
2022-09-15T01:06:35.555Z,99.60
2022-09-15T01:07:50.121Z,99.60
2022-09-15T01:08:58.337Z,99.80
2022-09-15T01:10:08.583Z,99.60
2022-09-15T01:11:10.949Z,99.60
2022-09-15T01:12:14.604Z,99.60
2022-09-15T01:13:18.899Z,99.60
2022-09-15T01:14:22.079Z,99.50
2022-09-15T01:15:32.003Z,99.50
2022-09-15T01:16:48.931Z,99.50
2022-09-15T01:18:05.264Z,99.60
2022-09-15T01:19:47.591Z,99.60
2022-09-15T01:21:07.804Z,99.60
2022-09-15T01:22:24.239Z,99.60
2022-09-15T01:24:09.402Z,99.60
2022-09-15T01:25:36.296Z,99.90
2022-09-15T01:27:37.614Z,99.50
2022-09-15T01:29:00.157Z,99.40
2022-09-15T01:30:09.238Z,99.50
2022-09-15T01:31:23.703Z,99.50
2022-09-15T01:32:52.777Z,99.50
2022-09-15T01:34:04.208Z,99.50
2022-09-15T01:35:26.376Z,99.50
2022-09-15T01:36:38.911Z,99.60
2022-09-15T01:37:50.306Z,99.50
2022-09-15T01:39:04.106Z,99.20
2022-09-15T01:40:09.111Z,99.50
2022-09-15T01:41:18.379Z,99.60
2022-09-15T01:42:24.636Z,99.60
2022-09-15T01:43:31.250Z,99.70
2022-09-15T01:44:39.262Z,99.70
2022-09-15T01:45:48.266Z,99.70
2022-09-15T01:46:58.335Z,99.70
2022-09-15T01:48:05.491Z,99.70
2022-09-15T01:49:14.812Z,99.70
2022-09-15T01:50:23.407Z,99.80
2022-09-15T01:51:29.351Z,99.80
2022-09-15T01:52:33.663Z,99.90
2022-09-15T01:53:37.410Z,99.80
2022-09-15T01:54:48.826Z,99.70
2022-09-15T01:55:57.573Z,99.80
2022-09-15T01:57:00.683Z,99.80
2022-09-15T01:58:04.049Z,99.90
2022-09-15T01:59:07.135Z,99.90
2022-09-15T02:00:11.510Z,99.90
2022-09-15T02:01:22.435Z,99.90
2022-09-15T02:02:31.257Z,99.90
2022-09-15T02:03:44.728Z,99.90
2022-09-15T02:04:53.874Z,99.80
2022-09-15T02:06:02.986Z,99.90
2022-09-15T02:07:14.431Z,99.90
2022-09-15T02:08:25.555Z,99.90
2022-09-15T02:09:35.797Z,99.90
2022-09-15T02:10:45.111Z,99.90
2022-09-15T02:11:59.006Z,99.90
2022-09-15T02:13:16.991Z,99.90
2022-09-15T02:14:36.356Z,99.90
2022-09-15T02:15:47.080Z,99.90
2022-09-15T02:16:56.171Z,99.90
2022-09-15T02:17:59.227Z,99.90
2022-09-15T02:19:18.323Z,99.90
2022-09-15T02:20:26.363Z,99.90
2022-09-15T02:21:40.746Z,99.90
2022-09-15T02:22:50.452Z,99.90
2022-09-15T02:24:01.447Z,99.90
2022-09-15T02:25:08.707Z,99.90
2022-09-15T02:26:17.863Z,99.90
2022-09-15T02:27:25.220Z,99.90
2022-09-15T02:28:34.152Z,99.90
2022-09-15T02:29:39.960Z,99.90
2022-09-15T02:33:26.518Z,99.90
2022-09-15T02:34:34.110Z,99.90
2022-09-15T02:35:37.883Z,99.90
2022-09-15T02:36:42.828Z,99.90
2022-09-15T02:37:47.130Z,99.90
2022-09-15T02:38:56.049Z,99.90
2022-09-15T02:40:02.267Z,99.90
2022-09-15T02:41:05.911Z,99.90
2022-09-15T02:42:09.234Z,99.90
2022-09-15T02:43:14.180Z,99.90
2022-09-15T02:44:17.647Z,99.90
2022-09-15T02:45:20.307Z,99.90
2022-09-15T02:46:24.642Z,99.90
2022-09-15T02:47:28.884Z,99.90
2022-09-15T02:48:33.589Z,99.90
2022-09-15T02:49:35.907Z,99.90
2022-09-15T02:50:41.282Z,99.90
2022-09-15T02:51:43.584Z,99.90
2022-09-15T02:52:46.955Z,99.90
2022-09-15T02:53:49.591Z,99.90
2022-09-15T02:54:53.599Z,99.90
2022-09-15T02:55:56.273Z,99.90
2022-09-15T02:57:00.297Z,99.90
2022-09-15T02:58:02.549Z,99.90
2022-09-15T02:59:06.059Z,99.90
2022-09-15T03:00:12.940Z,99.90
2022-09-15T03:01:17.357Z,99.90
2022-09-15T03:02:20.589Z,99.90
2022-09-15T03:03:23.962Z,99.90
2022-09-15T03:04:27.825Z,99.90
2022-09-15T03:05:31.705Z,99.90
2022-09-15T03:06:35.178Z,99.90
2022-09-15T03:07:38.558Z,99.90
2022-09-15T03:08:41.529Z,99.90
2022-09-15T03:09:45.066Z,99.90
2022-09-15T03:10:47.267Z,99.90
2022-09-15T03:11:50.479Z,99.90
2022-09-15T03:12:55.024Z,99.90
2022-09-15T03:14:00.103Z,99.90
2022-09-15T03:15:02.593Z,99.90
2022-09-15T03:16:09.283Z,99.90
2022-09-15T03:17:11.465Z,99.90
2022-09-15T03:18:14.627Z,99.90
2022-09-15T03:19:16.976Z,99.90
2022-09-15T03:20:23.983Z,99.90
2022-09-15T03:21:29.435Z,99.90
2022-09-15T03:22:32.589Z,99.90
2022-09-15T03:23:35.236Z,99.90
2022-09-15T03:24:38.572Z,99.90
2022-09-15T03:25:40.742Z,99.90
2022-09-15T03:26:44.104Z,99.90
2022-09-15T03:27:47.247Z,99.90
2022-09-15T03:28:50.527Z,99.90
2022-09-15T03:29:53.651Z,99.90
2022-09-15T03:30:59.202Z,99.90
2022-09-15T03:32:01.843Z,99.90
2022-09-15T03:33:05.246Z,99.90
2022-09-15T03:34:07.503Z,99.90
2022-09-15T03:35:11.785Z,99.90
2022-09-15T03:36:16.468Z,99.90
2022-09-15T03:37:18.847Z,99.90
2022-09-15T03:38:22.123Z,99.90
2022-09-15T03:39:24.517Z,99.90
2022-09-15T03:40:27.820Z,99.90
2022-09-15T03:41:30.114Z,99.90
2022-09-15T03:42:33.515Z,99.90
2022-09-15T03:43:37.341Z,99.90
2022-09-15T03:44:40.646Z,99.90
2022-09-15T03:45:42.957Z,99.90
2022-09-15T03:46:46.200Z,99.90
2022-09-15T03:47:48.465Z,99.90
2022-09-15T03:48:51.766Z,99.90
2022-09-15T03:49:53.911Z,99.90
2022-09-15T03:51:00.538Z,99.90
2022-09-15T03:52:04.599Z,99.90
2022-09-15T03:53:08.084Z,99.90
2022-09-15T03:54:10.835Z,99.90
2022-09-15T03:55:13.911Z,99.90
2022-09-15T03:56:24.525Z,99.90
2022-09-15T03:57:27.754Z,99.90
2022-09-15T03:58:30.870Z,99.90
2022-09-15T03:59:34.329Z,99.90
2022-09-15T04:00:36.992Z,99.90
2022-09-15T04:01:40.395Z,99.90
2022-09-15T04:02:42.577Z,99.90
2022-09-15T04:03:50.669Z,99.90
2022-09-15T04:04:53.753Z,99.90
2022-09-15T04:05:56.900Z,99.90
2022-09-15T04:07:00.083Z,99.90
2022-09-15T04:08:03.741Z,99.90
2022-09-15T04:09:07.463Z,99.90
2022-09-15T04:10:10.393Z,99.90
2022-09-15T04:11:15.009Z,99.90
2022-09-15T04:12:17.575Z,99.90
2022-09-15T04:13:20.655Z,99.90
2022-09-15T04:14:23.123Z,99.90
2022-09-15T04:15:26.661Z,99.90
2022-09-15T04:16:29.139Z,99.90
2022-09-15T04:17:32.595Z,99.90
2022-09-15T04:18:35.973Z,99.90
2022-09-15T04:19:39.357Z,99.90
2022-09-15T04:20:41.685Z,99.90
2022-09-15T04:21:45.920Z,99.90
2022-09-15T04:22:48.495Z,99.90
2022-09-15T04:23:54.138Z,99.90
2022-09-15T04:24:56.439Z,99.90
2022-09-15T04:26:02.151Z,99.90
2022-09-15T04:27:04.577Z,99.90
2022-09-15T04:28:07.657Z,99.90
2022-09-15T04:29:14.012Z,99.90
2022-09-15T04:30:17.487Z,99.90
2022-09-15T04:31:20.507Z,99.90
2022-09-15T04:32:23.735Z,99.90
2022-09-15T04:33:25.947Z,99.80
2022-09-15T04:34:29.130Z,99.80
2022-09-15T04:35:31.751Z,99.70
2022-09-15T04:36:34.959Z,99.80
2022-09-15T04:37:37.185Z,99.70
2022-09-15T04:38:40.886Z,99.60
2022-09-15T04:39:45.621Z,99.80
2022-09-15T04:40:48.300Z,99.50
2022-09-15T04:41:51.453Z,99.40
2022-09-15T04:42:53.937Z,99.40
2022-09-15T04:43:57.301Z,99.40
2022-09-15T04:44:59.444Z,99.40
2022-09-15T04:46:03.366Z,99.40
2022-09-15T04:47:05.906Z,99.50
2022-09-15T04:48:09.061Z,99.50
2022-09-15T04:49:11.493Z,99.40
2022-09-15T04:50:14.803Z,99.50
2022-09-15T04:51:21.253Z,99.50
2022-09-15T04:52:24.358Z,99.60
2022-09-15T04:53:26.625Z,99.50
2022-09-15T04:54:30.022Z,99.50
2022-09-15T04:55:34.308Z,99.60
2022-09-15T04:56:39.389Z,99.60
2022-09-15T04:57:41.563Z,99.50
2022-09-15T04:58:46.843Z,99.60
2022-09-15T04:59:49.045Z,99.90
2022-09-15T05:00:52.306Z,99.60
2022-09-15T05:01:55.454Z,99.60
2022-09-15T05:03:00.180Z,99.70
2022-09-15T05:04:04.099Z,99.60
2022-09-15T05:05:08.205Z,99.60
2022-09-15T05:06:13.657Z,99.60
2022-09-15T05:07:17.150Z,99.60
2022-09-15T05:08:19.592Z,99.60
2022-09-15T05:09:22.935Z,99.70
2022-09-15T05:10:25.157Z,99.80
2022-09-15T05:11:31.424Z,99.60
2022-09-15T05:12:33.914Z,99.70
2022-09-15T05:13:38.399Z,99.60
2022-09-15T05:14:40.586Z,99.60
2022-09-15T05:15:43.874Z,99.60
2022-09-15T05:16:46.213Z,99.70
2022-09-15T05:17:49.822Z,99.60
2022-09-15T05:18:54.811Z,99.60
2022-09-15T05:19:57.906Z,99.60
2022-09-15T05:21:00.685Z,99.60
2022-09-15T05:22:03.965Z,99.50
2022-09-15T05:23:06.523Z,99.50
2022-09-15T05:24:09.685Z,99.70
2022-09-15T05:25:12.022Z,99.50
2022-09-15T05:26:18.425Z,99.50
2022-09-15T05:27:21.943Z,99.40
2022-09-15T05:28:26.117Z,99.40
2022-09-15T05:29:30.618Z,99.30
2022-09-15T05:30:40.472Z,99.40
2022-09-15T05:31:45.828Z,99.80
2022-09-15T05:32:48.150Z,99.70
2022-09-15T05:33:53.226Z,99.10
2022-09-15T05:34:55.523Z,98.90
2022-09-15T05:36:01.594Z,98.80
2022-09-15T05:37:06.307Z,98.90
2022-09-15T05:38:08.458Z,99.00
2022-09-15T05:39:11.931Z,98.90
2022-09-15T05:40:15.415Z,99.10
2022-09-15T05:41:20.868Z,98.90
2022-09-15T05:42:24.454Z,98.90
2022-09-15T05:43:27.633Z,98.40
2022-09-15T05:44:31.696Z,98.20
2022-09-15T05:45:34.969Z,98.00
2022-09-15T05:46:37.197Z,98.30
2022-09-15T05:47:40.301Z,98.40
2022-09-15T05:48:42.624Z,98.20
2022-09-15T05:49:46.220Z,98.20
2022-09-15T05:50:50.297Z,98.10
2022-09-15T05:51:53.448Z,98.10
2022-09-15T05:52:55.747Z,98.10
2022-09-15T05:53:59.087Z,98.20
2022-09-15T05:55:01.486Z,98.20
2022-09-15T05:56:07.480Z,98.10
2022-09-15T05:57:09.713Z,98.80
2022-09-15T05:58:14.967Z,98.10
2022-09-15T05:59:17.356Z,98.20
2022-09-15T06:00:20.887Z,97.70
2022-09-15T06:01:26.304Z,97.50
2022-09-15T06:02:28.614Z,98.00
2022-09-15T06:03:32.032Z,97.70
2022-09-15T06:04:34.421Z,97.60
2022-09-15T06:05:37.915Z,97.60
2022-09-15T06:06:40.302Z,97.70
2022-09-15T06:07:43.586Z,97.70
2022-09-15T06:08:52.856Z,97.40
2022-09-15T06:09:57.797Z,97.80
2022-09-15T06:11:05.205Z,97.30
2022-09-15T06:12:08.683Z,97.10
2022-09-15T06:13:11.015Z,97.00
2022-09-15T06:14:15.863Z,97.20
2022-09-15T06:15:18.037Z,97.10
2022-09-15T06:16:24.125Z,97.20
2022-09-15T06:17:26.507Z,97.10
2022-09-15T06:18:29.781Z,96.90
2022-09-15T06:19:34.648Z,96.90
2022-09-15T06:20:36.879Z,97.60
2022-09-15T06:21:40.115Z,96.80
2022-09-15T06:22:45.853Z,96.50
2022-09-15T06:23:54.905Z,96.80
2022-09-15T06:24:57.434Z,96.50
2022-09-15T06:26:08.415Z,96.40
2022-09-15T06:27:11.813Z,96.40
2022-09-15T06:28:14.281Z,96.50
2022-09-15T06:29:18.769Z,96.50
2022-09-15T06:30:20.976Z,96.30
2022-09-15T06:31:27.093Z,96.30
2022-09-15T06:32:29.603Z,96.40
2022-09-15T06:33:32.786Z,96.20
2022-09-15T06:34:35.947Z,96.30
2022-09-15T06:35:38.111Z,96.20
2022-09-15T06:36:41.373Z,96.10
2022-09-15T06:37:43.576Z,96.00
2022-09-15T06:38:47.657Z,95.90
2022-09-15T06:39:51.224Z,96.20
2022-09-15T06:40:58.021Z,96.00
2022-09-15T06:42:03.692Z,95.90
2022-09-15T06:43:08.548Z,95.80
2022-09-15T06:44:12.617Z,95.70
2022-09-15T06:45:16.261Z,95.60
2022-09-15T06:46:22.014Z,95.50
2022-09-15T06:47:24.397Z,95.70
2022-09-15T06:48:27.649Z,95.40
2022-09-15T06:49:31.373Z,95.40
2022-09-15T06:50:34.687Z,95.30
2022-09-15T06:51:37.061Z,95.40
2022-09-15T06:52:40.313Z,95.70
2022-09-15T06:53:46.010Z,95.90
2022-09-15T06:54:49.864Z,95.30
2022-09-15T06:55:52.290Z,95.10
2022-09-15T06:56:55.665Z,95.20
2022-09-15T06:57:57.914Z,95.00
2022-09-15T06:59:02.717Z,94.70
2022-09-15T07:00:06.398Z,94.10
2022-09-15T07:01:13.279Z,94.20
2022-09-15T07:02:15.817Z,94.40
2022-09-15T07:03:19.579Z,94.40
2022-09-15T07:04:23.468Z,94.40
2022-09-15T07:05:25.906Z,94.30
2022-09-15T07:06:30.898Z,94.10
2022-09-15T07:07:33.152Z,94.20
2022-09-15T07:08:36.537Z,94.00
2022-09-15T07:09:41.270Z,94.30
2022-09-15T07:10:45.089Z,93.60
2022-09-15T07:11:48.334Z,93.20
2022-09-15T07:12:50.952Z,93.50
2022-09-15T07:13:54.247Z,93.70
2022-09-15T07:14:56.483Z,93.90
2022-09-15T07:16:02.394Z,94.10
2022-09-15T07:17:07.160Z,93.70
2022-09-15T07:18:09.443Z,94.00
2022-09-15T07:19:12.957Z,94.70
2022-09-15T07:20:15.407Z,93.10
2022-09-15T07:21:20.924Z,93.70
2022-09-15T07:22:25.004Z,93.80
2022-09-15T07:23:30.055Z,93.20
2022-09-15T07:24:32.224Z,93.10
2022-09-15T07:25:36.209Z,92.80
2022-09-15T07:26:38.587Z,92.90
2022-09-15T07:27:42.161Z,93.00
2022-09-15T07:28:46.604Z,92.50
2022-09-15T07:29:49.874Z,92.60
2022-09-15T07:30:52.217Z,93.20
2022-09-15T07:31:55.694Z,92.40
2022-09-15T07:32:59.297Z,91.80
2022-09-15T07:34:03.590Z,91.80
2022-09-15T07:35:06.277Z,91.80
2022-09-15T07:36:10.737Z,92.00
2022-09-15T07:37:14.201Z,91.90
2022-09-15T07:38:16.545Z,91.50
2022-09-15T07:39:19.800Z,91.80
2022-09-15T07:40:22.261Z,92.50
2022-09-15T07:41:28.536Z,92.40
2022-09-15T07:42:35.421Z,91.80
2022-09-15T07:43:40.151Z,91.60
2022-09-15T07:44:43.361Z,91.70
2022-09-15T07:45:48.188Z,91.70
2022-09-15T07:46:51.712Z,91.00
2022-09-15T07:48:00.514Z,91.00
2022-09-15T07:49:04.939Z,90.20
2022-09-15T07:50:09.261Z,90.30
2022-09-15T07:51:11.709Z,90.40
2022-09-15T07:52:15.006Z,90.40
2022-09-15T07:53:17.556Z,90.80
2022-09-15T07:54:22.924Z,92.00
2022-09-15T07:55:25.422Z,91.90
2022-09-15T07:56:28.875Z,92.00
2022-09-15T07:57:31.244Z,91.80
2022-09-15T07:58:35.511Z,90.50
2022-09-15T07:59:41.080Z,90.40
2022-09-15T08:00:45.155Z,88.30
2022-09-15T08:01:47.538Z,87.20
2022-09-15T08:02:50.717Z,87.10
2022-09-15T08:03:54.205Z,88.10
2022-09-15T08:04:58.088Z,88.10
2022-09-15T08:06:02.609Z,88.50
2022-09-15T08:07:07.342Z,88.60
2022-09-15T08:08:10.745Z,86.90
2022-09-15T08:09:14.993Z,85.80
2022-09-15T08:10:18.530Z,84.50
2022-09-15T08:11:22.812Z,86.40
2022-09-15T08:12:25.129Z,86.50
2022-09-15T08:13:30.338Z,84.60
2022-09-15T08:14:33.867Z,84.10
2022-09-15T08:15:37.088Z,83.70
2022-09-15T08:16:40.454Z,82.20
2022-09-15T08:17:42.724Z,83.40
2022-09-15T08:18:47.289Z,83.20
2022-09-15T08:19:49.473Z,82.60
2022-09-15T08:20:54.186Z,82.80
2022-09-15T08:21:56.494Z,81.20
2022-09-15T08:22:59.675Z,82.30
2022-09-15T08:24:02.135Z,83.50
2022-09-15T08:25:05.812Z,82.30
2022-09-15T08:26:13.589Z,82.40
2022-09-15T08:27:17.496Z,81.30
2022-09-15T08:28:19.828Z,80.70
2022-09-15T08:29:23.673Z,80.50
2022-09-15T08:30:26.969Z,79.80
2022-09-15T08:31:30.318Z,79.30
2022-09-15T08:32:34.329Z,78.70
2022-09-15T08:33:38.188Z,75.60
2022-09-15T08:34:43.122Z,77.40
2022-09-15T08:35:45.417Z,76.40
2022-09-15T08:36:49.952Z,78.10
2022-09-15T08:37:53.818Z,76.80
2022-09-15T08:38:57.380Z,76.50
2022-09-15T08:39:59.935Z,74.90
2022-09-15T08:41:06.491Z,75.40
2022-09-15T08:42:16.628Z,73.10
2022-09-15T08:43:27.959Z,72.00
2022-09-15T08:44:43.734Z,74.00
2022-09-15T08:45:54.489Z,73.60
2022-09-15T08:47:05.636Z,72.40
2022-09-15T08:48:15.791Z,71.80
2022-09-15T08:49:49.997Z,72.30
2022-09-15T08:50:55.775Z,69.80
2022-09-15T08:52:07.131Z,70.80
2022-09-15T08:53:17.288Z,69.60
2022-09-15T08:54:24.287Z,69.30
2022-09-15T08:55:38.547Z,69.20
2022-09-15T08:56:43.307Z,67.40
2022-09-15T08:57:48.743Z,67.10
2022-09-15T08:58:51.068Z,65.00
2022-09-15T08:59:55.489Z,63.80
2022-09-15T09:01:06.398Z,63.40
2022-09-15T09:02:51.313Z,63.80
2022-09-15T09:04:24.399Z,62.80
2022-09-15T09:05:46.758Z,63.50
2022-09-15T09:07:07.134Z,62.60
2022-09-15T09:08:26.673Z,62.40
2022-09-15T09:09:39.173Z,62.80
2022-09-15T09:10:52.755Z,62.10
2022-09-15T09:12:16.765Z,62.40
2022-09-15T09:13:35.350Z,62.40
2022-09-15T09:14:58.443Z,63.10
2022-09-15T09:16:26.635Z,63.60
2022-09-15T09:17:51.736Z,64.90
2022-09-15T09:19:12.579Z,64.80
2022-09-15T09:20:33.649Z,63.20
2022-09-15T09:21:42.354Z,63.80
2022-09-15T09:22:50.456Z,64.00
2022-09-15T09:24:03.295Z,64.30
2022-09-15T09:25:26.149Z,64.60
2022-09-15T09:26:35.016Z,64.50
2022-09-15T09:27:38.964Z,63.90
2022-09-15T09:28:50.519Z,63.20
2022-09-15T09:29:59.562Z,61.70
2022-09-15T09:31:08.486Z,61.50
2022-09-15T09:32:21.823Z,61.00
2022-09-15T09:33:31.617Z,61.30
2022-09-15T09:34:42.680Z,60.00
2022-09-15T09:35:49.467Z,60.30
2022-09-15T09:36:58.471Z,61.10
2022-09-15T09:38:02.800Z,61.60
2022-09-15T09:39:06.297Z,59.60
2022-09-15T09:40:14.176Z,60.60
2022-09-15T09:41:25.550Z,59.90
2022-09-15T09:42:32.737Z,59.90
2022-09-15T09:43:35.420Z,59.60
2022-09-15T09:44:38.985Z,59.90
2022-09-15T09:45:41.227Z,60.30
2022-09-15T09:46:46.668Z,60.80
2022-09-15T09:47:49.450Z,59.00
2022-09-15T09:48:59.899Z,60.60
2022-09-15T09:50:02.291Z,59.30
2022-09-15T09:51:05.715Z,60.20
2022-09-15T09:52:08.247Z,59.20
2022-09-15T09:53:25.721Z,59.80
2022-09-15T09:54:31.203Z,59.10
2022-09-15T09:55:33.627Z,59.00
2022-09-15T09:56:36.962Z,58.80
2022-09-15T09:57:40.843Z,59.00
2022-09-15T09:58:45.470Z,57.50
2022-09-15T09:59:50.168Z,59.10
2022-09-15T10:00:54.352Z,59.00
2022-09-15T10:02:13.532Z,59.10
2022-09-15T10:03:19.155Z,58.20
2022-09-15T10:04:23.461Z,59.40
2022-09-15T10:05:27.005Z,59.00
2022-09-15T10:06:32.761Z,58.90
2022-09-15T10:07:41.698Z,59.70
2022-09-15T10:08:58.127Z,60.80
2022-09-15T10:10:03.119Z,58.40
2022-09-15T10:11:08.754Z,58.60
2022-09-15T10:12:23.658Z,58.60
2022-09-15T10:13:26.105Z,59.00
2022-09-15T10:14:32.682Z,59.20
2022-09-15T10:15:42.072Z,59.30
2022-09-15T10:16:44.840Z,58.50
2022-09-15T10:17:53.187Z,59.30
2022-09-15T10:18:58.755Z,59.30
2022-09-15T10:20:02.274Z,59.00
2022-09-15T10:21:08.554Z,59.30
2022-09-15T10:22:24.783Z,60.10
2022-09-15T10:23:31.034Z,60.00
2022-09-15T10:24:39.287Z,60.20
2022-09-15T10:25:59.190Z,59.90
2022-09-15T10:27:18.304Z,60.80
2022-09-15T10:28:23.893Z,61.90
2022-09-15T10:29:26.079Z,61.30
2022-09-15T10:30:29.683Z,61.10
2022-09-15T10:31:33.093Z,60.90
2022-09-15T10:32:36.434Z,60.50
2022-09-15T10:33:41.978Z,61.80
2022-09-15T10:34:44.274Z,61.40
2022-09-15T10:35:47.800Z,61.00
2022-09-15T10:36:50.359Z,59.70
2022-09-15T10:38:05.461Z,60.50
2022-09-15T10:39:24.391Z,60.80
2022-09-15T10:40:36.055Z,61.80
2022-09-15T10:41:48.915Z,61.90
2022-09-15T10:42:55.507Z,61.30
2022-09-15T10:44:24.468Z,60.00
2022-09-15T10:45:35.108Z,60.60
2022-09-15T10:46:54.637Z,61.30
2022-09-15T10:48:27.835Z,62.40
2022-09-15T10:49:54.291Z,62.60
2022-09-15T10:51:03.255Z,63.00
2022-09-15T10:52:20.915Z,63.60
2022-09-15T10:53:44.319Z,63.70
2022-09-15T10:55:02.286Z,63.30
2022-09-15T10:56:19.077Z,63.80
2022-09-15T10:57:43.634Z,63.90
2022-09-15T10:59:06.607Z,63.70
2022-09-15T11:00:13.424Z,63.60
2022-09-15T11:01:45.436Z,63.70
2022-09-15T11:03:12.733Z,63.70
2022-09-15T11:04:34.060Z,63.80
2022-09-15T11:05:58.280Z,65.70
2022-09-15T11:07:11.623Z,66.30
2022-09-15T11:08:33.925Z,65.70
2022-09-15T11:09:46.257Z,66.70
2022-09-15T11:10:58.805Z,66.90
2022-09-15T11:12:24.842Z,66.80
2022-09-15T11:13:50.288Z,66.70
2022-09-15T11:15:15.809Z,66.30
2022-09-15T11:16:35.151Z,66.10
2022-09-15T11:17:56.370Z,66.00
2022-09-15T11:19:14.977Z,66.20
2022-09-15T11:20:50.560Z,65.40
2022-09-15T11:21:58.234Z,66.70
2022-09-15T11:23:13.425Z,66.90
2022-09-15T11:24:37.766Z,66.70
2022-09-15T11:25:46.401Z,66.50
2022-09-15T11:26:53.628Z,67.90
2022-09-15T11:28:04.733Z,67.10
2022-09-15T11:29:16.087Z,67.40
2022-09-15T11:30:21.707Z,67.70
2022-09-15T11:31:29.886Z,67.80
2022-09-15T11:32:42.753Z,66.60
2022-09-15T11:33:52.792Z,67.30
2022-09-15T11:35:08.855Z,67.90
2022-09-15T11:36:17.932Z,66.80
2022-09-15T11:37:25.985Z,66.40
2022-09-15T11:38:43.247Z,67.40
2022-09-15T11:39:53.670Z,68.20
2022-09-15T11:41:11.316Z,67.30
2022-09-15T11:42:23.399Z,67.90
2022-09-15T11:43:36.375Z,68.40
2022-09-15T11:44:42.976Z,67.10
2022-09-15T11:45:50.851Z,68.00
2022-09-15T11:47:15.582Z,68.50
2022-09-15T11:48:27.372Z,68.30
2022-09-15T11:49:38.127Z,68.70
2022-09-15T11:50:46.967Z,68.00
2022-09-15T11:51:57.618Z,66.90
2022-09-15T11:53:11.142Z,67.00
2022-09-15T11:54:21.362Z,68.60
2022-09-15T11:55:33.018Z,68.90
2022-09-15T11:56:43.603Z,67.70
2022-09-15T11:57:55.965Z,68.40
2022-09-15T11:59:12.790Z,70.00
2022-09-15T12:00:17.514Z,68.20
2022-09-15T12:01:24.661Z,67.80
2022-09-15T12:02:36.065Z,68.70
2022-09-15T12:03:48.837Z,69.30
2022-09-15T12:05:07.151Z,69.80
2022-09-15T12:06:17.476Z,68.80
2022-09-15T12:07:29.015Z,69.10
2022-09-15T12:08:40.378Z,69.80
2022-09-15T12:09:42.961Z,69.40
2022-09-15T12:10:52.701Z,68.50
2022-09-15T12:12:01.901Z,67.50
2022-09-15T12:13:07.374Z,67.70
2022-09-15T12:14:17.071Z,69.10
2022-09-15T12:15:27.564Z,67.50
2022-09-15T12:16:34.882Z,69.20
2022-09-15T12:17:46.614Z,68.40
2022-09-15T12:18:54.926Z,68.90
2022-09-15T12:20:06.417Z,69.10
2022-09-15T12:21:18.673Z,69.30
2022-09-15T12:22:29.148Z,69.10
2022-09-15T12:23:39.194Z,69.20
2022-09-15T12:24:57.822Z,69.10
2022-09-15T12:26:14.450Z,69.20
2022-09-15T12:27:20.139Z,69.30
2022-09-15T12:28:54.298Z,69.60
2022-09-15T12:30:01.273Z,70.00
2022-09-15T12:31:25.262Z,69.70
2022-09-15T12:32:30.424Z,69.30
2022-09-15T12:33:45.467Z,68.90
2022-09-15T12:35:27.601Z,69.40
2022-09-15T12:36:45.942Z,70.00
2022-09-15T12:37:55.221Z,68.90
2022-09-15T12:39:00.085Z,70.70
2022-09-15T12:40:07.217Z,70.20
2022-09-15T12:41:11.438Z,72.80
2022-09-15T12:42:20.420Z,70.90
2022-09-15T12:43:25.782Z,69.60
2022-09-15T12:44:35.416Z,69.40
2022-09-15T12:45:44.179Z,71.70
2022-09-15T12:46:51.967Z,71.70
2022-09-15T12:47:58.806Z,71.40
2022-09-15T12:49:04.746Z,70.20
2022-09-15T12:50:25.679Z,70.40
2022-09-15T12:51:30.213Z,70.40
2022-09-15T12:52:45.575Z,70.50
2022-09-15T12:53:54.445Z,70.80
2022-09-15T12:55:03.636Z,71.10
2022-09-15T12:56:10.454Z,70.80
2022-09-15T12:57:26.510Z,70.90
2022-09-15T12:58:35.144Z,71.60
2022-09-15T12:59:38.398Z,72.50
2022-09-15T13:01:00.596Z,71.90
2022-09-15T13:02:43.844Z,72.70
2022-09-15T13:04:23.268Z,72.00
2022-09-15T13:05:52.448Z,71.10
2022-09-15T13:07:39.331Z,71.70
2022-09-15T13:08:50.227Z,72.00
2022-09-15T13:10:17.204Z,71.30
2022-09-15T13:11:28.677Z,71.50
2022-09-15T13:12:41.338Z,72.90
2022-09-15T13:13:51.621Z,72.80
2022-09-15T13:15:01.192Z,73.80
2022-09-15T13:16:12.239Z,73.30
2022-09-15T13:17:21.493Z,71.50
2022-09-15T13:18:25.251Z,73.40
2022-09-15T13:19:41.138Z,70.70
2022-09-15T13:20:54.122Z,71.50
2022-09-15T13:22:06.315Z,69.70
2022-09-15T13:23:13.958Z,70.60
2022-09-15T13:24:26.053Z,72.20
2022-09-15T13:25:30.433Z,70.10
2022-09-15T13:26:37.599Z,72.60
2022-09-15T13:27:43.100Z,71.60
2022-09-15T13:28:50.526Z,70.60
2022-09-15T13:30:10.147Z,70.80
2022-09-15T13:31:26.860Z,69.70
2022-09-15T13:32:43.821Z,69.60
2022-09-15T13:35:52.326Z,68.80
2022-09-15T13:38:59.297Z,69.80
2022-09-15T13:40:27.507Z,70.50
2022-09-15T13:41:59.813Z,69.30
2022-09-15T13:43:36.288Z,69.70
2022-09-15T13:45:33.207Z,69.90
2022-09-15T13:46:54.078Z,70.00
2022-09-15T13:48:23.164Z,69.00
2022-09-15T13:49:49.864Z,70.60
2022-09-15T13:51:00.183Z,69.70
2022-09-15T13:52:15.716Z,69.00
2022-09-15T13:53:32.501Z,69.80
2022-09-15T13:54:37.351Z,70.10
2022-09-15T13:55:43.649Z,70.60
2022-09-15T13:56:49.309Z,71.30
2022-09-15T13:59:24.619Z,68.40
2022-09-15T14:00:30.801Z,69.30
2022-09-15T14:01:39.025Z,71.00
2022-09-15T14:03:59.954Z,69.70
2022-09-15T14:05:02.756Z,70.20
2022-09-15T14:06:15.518Z,68.80
2022-09-15T14:07:23.821Z,68.70
2022-09-15T14:08:33.629Z,68.90
2022-09-15T14:09:47.952Z,68.80
2022-09-15T14:10:55.537Z,70.70
2022-09-15T14:12:03.611Z,70.30
2022-09-15T14:13:06.134Z,69.70
2022-09-15T14:14:30.388Z,70.00
2022-09-15T14:15:32.812Z,70.00
2022-09-15T14:16:39.148Z,69.70
2022-09-15T14:17:46.612Z,70.10
2022-09-15T14:18:49.979Z,71.00
2022-09-15T14:19:55.724Z,71.30
2022-09-15T14:21:00.568Z,70.90
2022-09-15T14:22:26.126Z,70.80
2022-09-15T14:23:28.985Z,71.50
2022-09-15T14:24:33.299Z,71.30
2022-09-15T14:25:35.782Z,71.40
2022-09-15T14:26:39.822Z,71.60
2022-09-15T14:27:46.873Z,71.60
2022-09-15T14:28:53.174Z,73.20
2022-09-15T14:29:58.187Z,72.10
2022-09-15T14:31:03.093Z,70.90
2022-09-15T14:32:05.801Z,71.20
2022-09-15T14:33:18.867Z,70.20
2022-09-15T14:34:25.908Z,70.90
2022-09-15T14:35:35.904Z,70.50
2022-09-15T14:36:39.620Z,69.80
2022-09-15T14:37:47.072Z,71.20
2022-09-15T14:39:09.075Z,70.50
2022-09-15T14:40:23.563Z,71.10
2022-09-15T14:41:25.857Z,71.00
2022-09-15T14:42:32.719Z,70.60
2022-09-15T14:43:36.836Z,71.00
2022-09-15T14:46:11.148Z,70.00